sensor_id;sensor_type;location;lat;lon;timestamp;P1;durP1;ratioP1;P2;durP2;ratioP2
16654;SDS011;8441;51.344;7.022;2023-06-04T00:02:20;0.20;;;0.20;;
16654;SDS011;8441;51.344;7.022;2023-06-04T00:04:47;0.20;;;0.20;;
16654;SDS011;8441;51.344;7.022;2023-06-04T00:07:15;0.20;;;0.20;;
16654;SDS011;8441;51.344;7.022;2023-06-04T00:09:42;0.13;;;0.13;;
16654;SDS011;8441;51.344;7.022;2023-06-04T00:12:11;0.20;;;0.20;;
16654;SDS011;8441;51.344;7.022;2023-06-04T00:14:39;0.20;;;0.20;;
16654;SDS011;8441;51.344;7.022;2023-06-04T00:17:08;0.20;;;0.20;;
16654;SDS011;8441;51.344;7.022;2023-06-04T00:19:37;0.10;;;0.10;;
16654;SDS011;8441;51.344;7.022;2023-06-04T00:22:05;0.10;;;0.10;;
16654;SDS011;8441;51.344;7.022;2023-06-04T00:24:33;0.10;;;0.10;;
16654;SDS011;8441;51.344;7.022;2023-06-04T00:27:00;0.15;;;0.15;;
16654;SDS011;8441;51.344;7.022;2023-06-04T00:29:28;0.20;;;0.20;;
16654;SDS011;8441;51.344;7.022;2023-06-04T00:31:55;0.20;;;0.20;;
16654;SDS011;8441;51.344;7.022;2023-06-04T00:34:23;0.20;;;0.20;;
16654;SDS011;8441;51.344;7.022;2023-06-04T00:36:51;0.10;;;0.10;;
16654;SDS011;8441;51.344;7.022;2023-06-04T00:39:18;0.20;;;0.20;;
16654;SDS011;8441;51.344;7.022;2023-06-04T00:41:45;0.20;;;0.20;;
16654;SDS011;8441;51.344;7.022;2023-06-04T00:44:13;0.30;;;0.30;;
16654;SDS011;8441;51.344;7.022;2023-06-04T00:46:40;0.20;;;0.20;;
16654;SDS011;8441;51.344;7.022;2023-06-04T00:49:10;0.20;;;0.20;;
16654;SDS011;8441;51.344;7.022;2023-06-04T00:51:39;0.10;;;0.10;;
16654;SDS011;8441;51.344;7.022;2023-06-04T00:54:07;0.20;;;0.20;;
16654;SDS011;8441;51.344;7.022;2023-06-04T00:56:35;0.10;;;0.10;;
16654;SDS011;8441;51.344;7.022;2023-06-04T00:59:04;0.20;;;0.20;;
16654;SDS011;8441;51.344;7.022;2023-06-04T01:01:36;0.20;;;0.20;;
16654;SDS011;8441;51.344;7.022;2023-06-04T01:04:09;0.20;;;0.20;;
16654;SDS011;8441;51.344;7.022;2023-06-04T01:06:44;0.17;;;0.17;;
16654;SDS011;8441;51.344;7.022;2023-06-04T01:09:16;0.20;;;0.20;;
16654;SDS011;8441;51.344;7.022;2023-06-04T01:11:43;0.20;;;0.20;;
16654;SDS011;8441;51.344;7.022;2023-06-04T01:14:10;0.20;;;0.20;;
16654;SDS011;8441;51.344;7.022;2023-06-04T01:16:39;0.20;;;0.20;;
16654;SDS011;8441;51.344;7.022;2023-06-04T01:19:11;0.20;;;0.20;;
16654;SDS011;8441;51.344;7.022;2023-06-04T01:21:52;0.20;;;0.20;;
16654;SDS011;8441;51.344;7.022;2023-06-04T01:24:28;0.20;;;0.20;;
16654;SDS011;8441;51.344;7.022;2023-06-04T01:27:01;0.20;;;0.20;;
16654;SDS011;8441;51.344;7.022;2023-06-04T01:29:29;0.20;;;0.20;;
16654;SDS011;8441;51.344;7.022;2023-06-04T01:31:57;0.20;;;0.20;;
16654;SDS011;8441;51.344;7.022;2023-06-04T01:34:25;0.20;;;0.20;;
16654;SDS011;8441;51.344;7.022;2023-06-04T01:36:54;0.20;;;0.20;;
16654;SDS011;8441;51.344;7.022;2023-06-04T01:39:21;0.20;;;0.20;;
16654;SDS011;8441;51.344;7.022;2023-06-04T01:41:48;0.20;;;0.20;;
16654;SDS011;8441;51.344;7.022;2023-06-04T01:44:16;0.20;;;0.20;;
16654;SDS011;8441;51.344;7.022;2023-06-04T01:46:44;0.30;;;0.30;;
16654;SDS011;8441;51.344;7.022;2023-06-04T01:49:11;0.20;;;0.20;;
16654;SDS011;8441;51.344;7.022;2023-06-04T01:51:38;0.10;;;0.10;;
16654;SDS011;8441;51.344;7.022;2023-06-04T01:54:07;0.10;;;0.10;;
16654;SDS011;8441;51.344;7.022;2023-06-04T01:56:34;0.17;;;0.17;;
16654;SDS011;8441;51.344;7.022;2023-06-04T01:59:01;0.13;;;0.13;;
16654;SDS011;8441;51.344;7.022;2023-06-04T02:01:29;0.30;;;0.30;;
16654;SDS011;8441;51.344;7.022;2023-06-04T02:03:56;0.20;;;0.20;;
16654;SDS011;8441;51.344;7.022;2023-06-04T02:06:23;0.15;;;0.15;;
16654;SDS011;8441;51.344;7.022;2023-06-04T02:08:55;0.20;;;0.20;;
16654;SDS011;8441;51.344;7.022;2023-06-04T02:11:23;0.20;;;0.20;;
16654;SDS011;8441;51.344;7.022;2023-06-04T02:13:50;0.20;;;0.20;;
16654;SDS011;8441;51.344;7.022;2023-06-04T02:16:18;0.20;;;0.20;;
16654;SDS011;8441;51.344;7.022;2023-06-04T02:18:45;0.20;;;0.20;;
16654;SDS011;8441;51.344;7.022;2023-06-04T02:21:12;0.28;;;0.28;;
16654;SDS011;8441;51.344;7.022;2023-06-04T02:23:39;0.20;;;0.20;;
16654;SDS011;8441;51.344;7.022;2023-06-04T02:26:07;0.17;;;0.17;;
16654;SDS011;8441;51.344;7.022;2023-06-04T02:28:35;0.20;;;0.20;;
16654;SDS011;8441;51.344;7.022;2023-06-04T02:31:02;0.20;;;0.20;;
16654;SDS011;8441;51.344;7.022;2023-06-04T02:33:30;0.20;;;0.20;;
16654;SDS011;8441;51.344;7.022;2023-06-04T02:35:57;0.13;;;0.13;;
16654;SDS011;8441;51.344;7.022;2023-06-04T02:38:25;0.20;;;0.20;;
16654;SDS011;8441;51.344;7.022;2023-06-04T02:40:52;0.20;;;0.20;;
16654;SDS011;8441;51.344;7.022;2023-06-04T02:43:19;0.20;;;0.20;;
16654;SDS011;8441;51.344;7.022;2023-06-04T02:45:48;0.20;;;0.20;;
16654;SDS011;8441;51.344;7.022;2023-06-04T02:48:15;0.20;;;0.20;;
16654;SDS011;8441;51.344;7.022;2023-06-04T02:50:42;0.20;;;0.20;;
16654;SDS011;8441;51.344;7.022;2023-06-04T02:53:09;0.20;;;0.20;;
16654;SDS011;8441;51.344;7.022;2023-06-04T02:55:37;0.20;;;0.20;;
16654;SDS011;8441;51.344;7.022;2023-06-04T02:58:04;0.20;;;0.20;;
16654;SDS011;8441;51.344;7.022;2023-06-04T03:00:31;0.20;;;0.20;;
16654;SDS011;8441;51.344;7.022;2023-06-04T03:02:59;0.20;;;0.20;;
16654;SDS011;8441;51.344;7.022;2023-06-04T03:05:27;0.20;;;0.20;;
16654;SDS011;8441;51.344;7.022;2023-06-04T03:07:56;0.20;;;0.20;;
16654;SDS011;8441;51.344;7.022;2023-06-04T03:10:24;0.20;;;0.20;;
16654;SDS011;8441;51.344;7.022;2023-06-04T03:12:51;0.28;;;0.28;;
16654;SDS011;8441;51.344;7.022;2023-06-04T03:15:19;0.20;;;0.20;;
16654;SDS011;8441;51.344;7.022;2023-06-04T03:17:46;0.20;;;0.20;;
16654;SDS011;8441;51.344;7.022;2023-06-04T03:20:15;0.20;;;0.20;;
16654;SDS011;8441;51.344;7.022;2023-06-04T03:22:42;0.25;;;0.25;;
16654;SDS011;8441;51.344;7.022;2023-06-04T03:25:09;0.20;;;0.20;;
16654;SDS011;8441;51.344;7.022;2023-06-04T03:27:36;0.20;;;0.20;;
16654;SDS011;8441;51.344;7.022;2023-06-04T03:30:04;0.20;;;0.20;;
16654;SDS011;8441;51.344;7.022;2023-06-04T03:32:32;0.30;;;0.30;;
16654;SDS011;8441;51.344;7.022;2023-06-04T03:34:59;0.20;;;0.20;;
16654;SDS011;8441;51.344;7.022;2023-06-04T03:37:29;0.17;;;0.17;;
16654;SDS011;8441;51.344;7.022;2023-06-04T03:39:57;0.20;;;0.20;;
16654;SDS011;8441;51.344;7.022;2023-06-04T03:42:25;0.20;;;0.20;;
16654;SDS011;8441;51.344;7.022;2023-06-04T03:44:52;0.20;;;0.20;;
16654;SDS011;8441;51.344;7.022;2023-06-04T03:47:19;0.20;;;0.20;;
16654;SDS011;8441;51.344;7.022;2023-06-04T03:49:46;0.20;;;0.20;;
16654;SDS011;8441;51.344;7.022;2023-06-04T03:52:13;0.20;;;0.20;;
16654;SDS011;8441;51.344;7.022;2023-06-04T03:54:42;0.30;;;0.30;;
16654;SDS011;8441;51.344;7.022;2023-06-04T03:57:09;0.20;;;0.20;;
16654;SDS011;8441;51.344;7.022;2023-06-04T03:59:36;0.20;;;0.20;;
16654;SDS011;8441;51.344;7.022;2023-06-04T04:02:03;0.20;;;0.20;;
16654;SDS011;8441;51.344;7.022;2023-06-04T04:04:31;0.10;;;0.10;;
16654;SDS011;8441;51.344;7.022;2023-06-04T04:06:59;0.10;;;0.10;;
16654;SDS011;8441;51.344;7.022;2023-06-04T04:09:27;0.28;;;0.28;;
16654;SDS011;8441;51.344;7.022;2023-06-04T04:11:55;0.20;;;0.20;;
16654;SDS011;8441;51.344;7.022;2023-06-04T04:14:22;0.20;;;0.20;;
16654;SDS011;8441;51.344;7.022;2023-06-04T04:16:50;0.17;;;0.17;;
16654;SDS011;8441;51.344;7.022;2023-06-04T04:19:17;0.20;;;0.20;;
16654;SDS011;8441;51.344;7.022;2023-06-04T04:21:44;0.20;;;0.20;;
16654;SDS011;8441;51.344;7.022;2023-06-04T04:24:21;0.20;;;0.20;;
16654;SDS011;8441;51.344;7.022;2023-06-04T04:26:49;0.30;;;0.30;;
16654;SDS011;8441;51.344;7.022;2023-06-04T04:29:19;0.20;;;0.20;;
16654;SDS011;8441;51.344;7.022;2023-06-04T04:31:49;0.20;;;0.20;;
16654;SDS011;8441;51.344;7.022;2023-06-04T04:34:17;0.10;;;0.10;;
16654;SDS011;8441;51.344;7.022;2023-06-04T04:36:46;0.20;;;0.20;;
16654;SDS011;8441;51.344;7.022;2023-06-04T04:39:17;0.20;;;0.20;;
16654;SDS011;8441;51.344;7.022;2023-06-04T04:41:45;0.20;;;0.20;;
16654;SDS011;8441;51.344;7.022;2023-06-04T04:44:12;0.10;;;0.10;;
16654;SDS011;8441;51.344;7.022;2023-06-04T04:46:41;0.20;;;0.20;;
16654;SDS011;8441;51.344;7.022;2023-06-04T04:49:08;0.20;;;0.20;;
16654;SDS011;8441;51.344;7.022;2023-06-04T04:51:35;0.20;;;0.20;;
16654;SDS011;8441;51.344;7.022;2023-06-04T04:54:02;0.20;;;0.20;;
16654;SDS011;8441;51.344;7.022;2023-06-04T04:56:32;0.22;;;0.22;;
16654;SDS011;8441;51.344;7.022;2023-06-04T04:59:00;0.20;;;0.20;;
16654;SDS011;8441;51.344;7.022;2023-06-04T05:01:27;0.20;;;0.20;;
16654;SDS011;8441;51.344;7.022;2023-06-04T05:03:56;0.20;;;0.20;;
16654;SDS011;8441;51.344;7.022;2023-06-04T05:06:23;0.20;;;0.20;;
16654;SDS011;8441;51.344;7.022;2023-06-04T05:08:50;0.20;;;0.20;;
16654;SDS011;8441;51.344;7.022;2023-06-04T05:11:17;0.20;;;0.20;;
16654;SDS011;8441;51.344;7.022;2023-06-04T05:13:44;0.10;;;0.10;;
16654;SDS011;8441;51.344;7.022;2023-06-04T05:16:12;0.20;;;0.20;;
16654;SDS011;8441;51.344;7.022;2023-06-04T05:18:39;0.20;;;0.20;;
16654;SDS011;8441;51.344;7.022;2023-06-04T05:21:11;0.13;;;0.13;;
16654;SDS011;8441;51.344;7.022;2023-06-04T05:23:38;0.20;;;0.20;;
16654;SDS011;8441;51.344;7.022;2023-06-04T05:26:06;0.20;;;0.20;;
16654;SDS011;8441;51.344;7.022;2023-06-04T05:28:33;0.20;;;0.20;;
16654;SDS011;8441;51.344;7.022;2023-06-04T05:31:00;0.20;;;0.20;;
16654;SDS011;8441;51.344;7.022;2023-06-04T05:33:28;0.10;;;0.10;;
16654;SDS011;8441;51.344;7.022;2023-06-04T05:35:57;0.20;;;0.20;;
16654;SDS011;8441;51.344;7.022;2023-06-04T05:38:25;0.20;;;0.20;;
16654;SDS011;8441;51.344;7.022;2023-06-04T05:40:56;0.20;;;0.20;;
16654;SDS011;8441;51.344;7.022;2023-06-04T05:43:23;0.20;;;0.20;;
16654;SDS011;8441;51.344;7.022;2023-06-04T05:45:50;0.10;;;0.10;;
16654;SDS011;8441;51.344;7.022;2023-06-04T05:48:18;0.20;;;0.20;;
16654;SDS011;8441;51.344;7.022;2023-06-04T05:50:45;0.20;;;0.20;;
16654;SDS011;8441;51.344;7.022;2023-06-04T05:53:12;0.20;;;0.20;;
16654;SDS011;8441;51.344;7.022;2023-06-04T05:55:41;0.20;;;0.20;;
16654;SDS011;8441;51.344;7.022;2023-06-04T05:58:08;0.20;;;0.20;;
16654;SDS011;8441;51.344;7.022;2023-06-04T06:00:35;0.20;;;0.20;;
16654;SDS011;8441;51.344;7.022;2023-06-04T06:03:03;0.20;;;0.20;;
16654;SDS011;8441;51.344;7.022;2023-06-04T06:05:31;0.13;;;0.13;;
16654;SDS011;8441;51.344;7.022;2023-06-04T06:07:58;0.15;;;0.15;;
16654;SDS011;8441;51.344;7.022;2023-06-04T06:10:26;0.13;;;0.13;;
16654;SDS011;8441;51.344;7.022;2023-06-04T06:12:56;0.20;;;0.20;;
16654;SDS011;8441;51.344;7.022;2023-06-04T06:15:23;0.20;;;0.20;;
16654;SDS011;8441;51.344;7.022;2023-06-04T06:17:50;0.15;;;0.15;;
16654;SDS011;8441;51.344;7.022;2023-06-04T06:20:17;0.10;;;0.10;;
16654;SDS011;8441;51.344;7.022;2023-06-04T06:22:45;0.10;;;0.10;;
16654;SDS011;8441;51.344;7.022;2023-06-04T06:25:14;0.10;;;0.10;;
16654;SDS011;8441;51.344;7.022;2023-06-04T06:27:41;0.10;;;0.10;;
16654;SDS011;8441;51.344;7.022;2023-06-04T06:30:10;0.10;;;0.10;;
16654;SDS011;8441;51.344;7.022;2023-06-04T06:32:39;0.10;;;0.10;;
16654;SDS011;8441;51.344;7.022;2023-06-04T06:35:07;0.10;;;0.10;;
16654;SDS011;8441;51.344;7.022;2023-06-04T06:37:34;0.08;;;0.08;;
16654;SDS011;8441;51.344;7.022;2023-06-04T06:40:07;0.10;;;0.10;;
16654;SDS011;8441;51.344;7.022;2023-06-04T06:42:35;0.10;;;0.10;;
16654;SDS011;8441;51.344;7.022;2023-06-04T06:45:02;0.10;;;0.10;;
16654;SDS011;8441;51.344;7.022;2023-06-04T06:47:32;0.10;;;0.10;;
16654;SDS011;8441;51.344;7.022;2023-06-04T06:49:59;0.20;;;0.20;;
16654;SDS011;8441;51.344;7.022;2023-06-04T06:52:26;0.17;;;0.17;;
16654;SDS011;8441;51.344;7.022;2023-06-04T06:54:53;0.13;;;0.13;;
16654;SDS011;8441;51.344;7.022;2023-06-04T06:57:20;0.10;;;0.10;;
16654;SDS011;8441;51.344;7.022;2023-06-04T06:59:47;0.10;;;0.10;;
16654;SDS011;8441;51.344;7.022;2023-06-04T07:02:17;0.20;;;0.20;;
16654;SDS011;8441;51.344;7.022;2023-06-04T07:04:46;0.13;;;0.13;;
16654;SDS011;8441;51.344;7.022;2023-06-04T07:07:13;0.20;;;0.20;;
16654;SDS011;8441;51.344;7.022;2023-06-04T07:09:41;0.10;;;0.10;;
16654;SDS011;8441;51.344;7.022;2023-06-04T07:12:08;0.10;;;0.10;;
16654;SDS011;8441;51.344;7.022;2023-06-04T07:14:36;0.20;;;0.20;;
16654;SDS011;8441;51.344;7.022;2023-06-04T07:17:03;0.20;;;0.20;;
16654;SDS011;8441;51.344;7.022;2023-06-04T07:19:30;0.20;;;0.20;;
16654;SDS011;8441;51.344;7.022;2023-06-04T07:21:59;0.20;;;0.20;;
16654;SDS011;8441;51.344;7.022;2023-06-04T07:24:26;0.10;;;0.10;;
16654;SDS011;8441;51.344;7.022;2023-06-04T07:26:53;0.10;;;0.10;;
16654;SDS011;8441;51.344;7.022;2023-06-04T07:29:20;0.10;;;0.10;;
16654;SDS011;8441;51.344;7.022;2023-06-04T07:31:47;0.10;;;0.10;;
16654;SDS011;8441;51.344;7.022;2023-06-04T07:34:14;0.10;;;0.10;;
16654;SDS011;8441;51.344;7.022;2023-06-04T07:36:42;0.10;;;0.10;;
16654;SDS011;8441;51.344;7.022;2023-06-04T07:39:10;0.10;;;0.10;;
16654;SDS011;8441;51.344;7.022;2023-06-04T07:41:38;0.10;;;0.10;;
16654;SDS011;8441;51.344;7.022;2023-06-04T07:44:05;0.10;;;0.10;;
16654;SDS011;8441;51.344;7.022;2023-06-04T07:46:32;0.10;;;0.10;;
16654;SDS011;8441;51.344;7.022;2023-06-04T07:48:59;0.10;;;0.10;;
16654;SDS011;8441;51.344;7.022;2023-06-04T07:51:26;0.10;;;0.10;;
16654;SDS011;8441;51.344;7.022;2023-06-04T07:53:53;0.10;;;0.10;;
16654;SDS011;8441;51.344;7.022;2023-06-04T07:56:22;0.10;;;0.10;;
16654;SDS011;8441;51.344;7.022;2023-06-04T07:58:50;0.10;;;0.10;;
16654;SDS011;8441;51.344;7.022;2023-06-04T08:01:17;0.20;;;0.20;;
16654;SDS011;8441;51.344;7.022;2023-06-04T08:03:45;0.10;;;0.10;;
16654;SDS011;8441;51.344;7.022;2023-06-04T08:06:12;0.10;;;0.10;;
16654;SDS011;8441;51.344;7.022;2023-06-04T08:08:41;0.10;;;0.10;;
16654;SDS011;8441;51.344;7.022;2023-06-04T08:11:10;0.10;;;0.10;;
16654;SDS011;8441;51.344;7.022;2023-06-04T08:13:39;0.10;;;0.10;;
16654;SDS011;8441;51.344;7.022;2023-06-04T08:16:06;0.10;;;0.10;;
16654;SDS011;8441;51.344;7.022;2023-06-04T08:18:37;0.10;;;0.10;;
16654;SDS011;8441;51.344;7.022;2023-06-04T08:21:04;0.10;;;0.10;;
16654;SDS011;8441;51.344;7.022;2023-06-04T08:23:32;0.10;;;0.10;;
16654;SDS011;8441;51.344;7.022;2023-06-04T08:25:59;0.10;;;0.10;;
16654;SDS011;8441;51.344;7.022;2023-06-04T08:28:26;0.10;;;0.10;;
16654;SDS011;8441;51.344;7.022;2023-06-04T08:30:55;0.10;;;0.10;;
16654;SDS011;8441;51.344;7.022;2023-06-04T08:33:22;0.10;;;0.10;;
16654;SDS011;8441;51.344;7.022;2023-06-04T08:35:49;0.10;;;0.10;;
16654;SDS011;8441;51.344;7.022;2023-06-04T08:38:16;0.10;;;0.10;;
16654;SDS011;8441;51.344;7.022;2023-06-04T08:40:44;0.10;;;0.10;;
16654;SDS011;8441;51.344;7.022;2023-06-04T08:43:11;0.10;;;0.10;;
16654;SDS011;8441;51.344;7.022;2023-06-04T08:45:39;0.10;;;0.10;;
16654;SDS011;8441;51.344;7.022;2023-06-04T08:48:10;0.10;;;0.10;;
16654;SDS011;8441;51.344;7.022;2023-06-04T08:50:37;0.10;;;0.10;;
16654;SDS011;8441;51.344;7.022;2023-06-04T08:53:10;0.10;;;0.10;;
16654;SDS011;8441;51.344;7.022;2023-06-04T08:55:40;0.10;;;0.10;;
16654;SDS011;8441;51.344;7.022;2023-06-04T08:58:07;0.10;;;0.10;;
16654;SDS011;8441;51.344;7.022;2023-06-04T09:00:36;0.10;;;0.10;;
16654;SDS011;8441;51.344;7.022;2023-06-04T09:03:04;0.10;;;0.10;;
16654;SDS011;8441;51.344;7.022;2023-06-04T09:05:32;0.10;;;0.10;;
16654;SDS011;8441;51.344;7.022;2023-06-04T09:08:01;0.10;;;0.10;;
16654;SDS011;8441;51.344;7.022;2023-06-04T09:10:31;0.10;;;0.10;;
16654;SDS011;8441;51.344;7.022;2023-06-04T09:13:01;0.10;;;0.10;;
16654;SDS011;8441;51.344;7.022;2023-06-04T09:15:29;0.10;;;0.10;;
16654;SDS011;8441;51.344;7.022;2023-06-04T09:17:56;0.10;;;0.10;;
16654;SDS011;8441;51.344;7.022;2023-06-04T09:20:24;0.10;;;0.10;;
16654;SDS011;8441;51.344;7.022;2023-06-04T09:22:53;0.10;;;0.10;;
16654;SDS011;8441;51.344;7.022;2023-06-04T09:25:21;0.10;;;0.10;;
16654;SDS011;8441;51.344;7.022;2023-06-04T09:27:50;0.10;;;0.10;;
16654;SDS011;8441;51.344;7.022;2023-06-04T09:30:18;0.05;;;0.05;;
16654;SDS011;8441;51.344;7.022;2023-06-04T09:32:45;0.10;;;0.10;;
16654;SDS011;8441;51.344;7.022;2023-06-04T09:35:13;0.10;;;0.10;;
16654;SDS011;8441;51.344;7.022;2023-06-04T09:37:43;0.10;;;0.10;;
16654;SDS011;8441;51.344;7.022;2023-06-04T09:40:19;0.10;;;0.10;;
16654;SDS011;8441;51.344;7.022;2023-06-04T09:42:46;0.00;;;0.00;;
16654;SDS011;8441;51.344;7.022;2023-06-04T09:45:26;0.10;;;0.10;;
16654;SDS011;8441;51.344;7.022;2023-06-04T09:47:54;0.10;;;0.10;;
16654;SDS011;8441;51.344;7.022;2023-06-04T09:50:24;0.10;;;0.10;;
16654;SDS011;8441;51.344;7.022;2023-06-04T09:52:52;0.10;;;0.10;;
16654;SDS011;8441;51.344;7.022;2023-06-04T09:55:21;0.05;;;0.05;;
16654;SDS011;8441;51.344;7.022;2023-06-04T09:57:49;0.05;;;0.05;;
16654;SDS011;8441;51.344;7.022;2023-06-04T10:00:17;0.10;;;0.10;;
16654;SDS011;8441;51.344;7.022;2023-06-04T10:02:47;0.08;;;0.08;;
16654;SDS011;8441;51.344;7.022;2023-06-04T10:05:15;0.00;;;0.00;;
16654;SDS011;8441;51.344;7.022;2023-06-04T10:07:46;0.10;;;0.10;;
16654;SDS011;8441;51.344;7.022;2023-06-04T10:10:18;0.10;;;0.10;;
16654;SDS011;8441;51.344;7.022;2023-06-04T10:12:50;0.00;;;0.00;;
16654;SDS011;8441;51.344;7.022;2023-06-04T10:15:21;0.10;;;0.10;;
16654;SDS011;8441;51.344;7.022;2023-06-04T10:17:48;0.10;;;0.10;;
16654;SDS011;8441;51.344;7.022;2023-06-04T10:20:16;0.10;;;0.10;;
16654;SDS011;8441;51.344;7.022;2023-06-04T10:22:45;0.10;;;0.10;;
16654;SDS011;8441;51.344;7.022;2023-06-04T10:25:14;0.10;;;0.10;;
16654;SDS011;8441;51.344;7.022;2023-06-04T10:27:44;0.10;;;0.10;;
16654;SDS011;8441;51.344;7.022;2023-06-04T10:30:12;0.10;;;0.10;;
16654;SDS011;8441;51.344;7.022;2023-06-04T10:32:40;0.10;;;0.10;;
16654;SDS011;8441;51.344;7.022;2023-06-04T10:35:08;0.08;;;0.08;;
16654;SDS011;8441;51.344;7.022;2023-06-04T10:37:35;0.10;;;0.10;;
16654;SDS011;8441;51.344;7.022;2023-06-04T10:40:03;0.10;;;0.10;;
16654;SDS011;8441;51.344;7.022;2023-06-04T10:42:37;0.10;;;0.10;;
16654;SDS011;8441;51.344;7.022;2023-06-04T10:45:07;0.10;;;0.10;;
16654;SDS011;8441;51.344;7.022;2023-06-04T10:47:36;0.10;;;0.10;;
16654;SDS011;8441;51.344;7.022;2023-06-04T10:50:09;0.10;;;0.10;;
16654;SDS011;8441;51.344;7.022;2023-06-04T10:52:37;0.10;;;0.10;;
16654;SDS011;8441;51.344;7.022;2023-06-04T10:55:06;0.10;;;0.10;;
16654;SDS011;8441;51.344;7.022;2023-06-04T10:57:34;0.10;;;0.10;;
16654;SDS011;8441;51.344;7.022;2023-06-04T11:00:02;0.10;;;0.10;;
16654;SDS011;8441;51.344;7.022;2023-06-04T11:02:36;0.10;;;0.10;;
16654;SDS011;8441;51.344;7.022;2023-06-04T11:05:05;0.10;;;0.10;;
16654;SDS011;8441;51.344;7.022;2023-06-04T11:07:41;0.00;;;0.00;;
16654;SDS011;8441;51.344;7.022;2023-06-04T11:10:10;0.10;;;0.10;;
16654;SDS011;8441;51.344;7.022;2023-06-04T11:12:41;0.10;;;0.10;;
16654;SDS011;8441;51.344;7.022;2023-06-04T11:15:09;0.00;;;0.00;;
16654;SDS011;8441;51.344;7.022;2023-06-04T11:17:38;0.00;;;0.00;;
16654;SDS011;8441;51.344;7.022;2023-06-04T11:20:15;0.00;;;0.00;;
16654;SDS011;8441;51.344;7.022;2023-06-04T11:22:49;0.10;;;0.10;;
16654;SDS011;8441;51.344;7.022;2023-06-04T11:25:18;0.10;;;0.10;;
16654;SDS011;8441;51.344;7.022;2023-06-04T11:27:47;0.00;;;0.00;;
16654;SDS011;8441;51.344;7.022;2023-06-04T11:30:14;0.10;;;0.10;;
16654;SDS011;8441;51.344;7.022;2023-06-04T11:32:43;0.08;;;0.08;;
16654;SDS011;8441;51.344;7.022;2023-06-04T11:35:11;0.10;;;0.10;;
16654;SDS011;8441;51.344;7.022;2023-06-04T11:37:38;0.00;;;0.00;;
16654;SDS011;8441;51.344;7.022;2023-06-04T11:40:15;0.10;;;0.10;;
16654;SDS011;8441;51.344;7.022;2023-06-04T11:42:43;0.05;;;0.05;;
16654;SDS011;8441;51.344;7.022;2023-06-04T11:45:12;0.00;;;0.00;;
16654;SDS011;8441;51.344;7.022;2023-06-04T11:47:39;0.00;;;0.00;;
16654;SDS011;8441;51.344;7.022;2023-06-04T11:50:09;0.10;;;0.10;;
16654;SDS011;8441;51.344;7.022;2023-06-04T11:52:37;0.10;;;0.10;;
16654;SDS011;8441;51.344;7.022;2023-06-04T11:55:07;0.10;;;0.10;;
16654;SDS011;8441;51.344;7.022;2023-06-04T11:57:36;0.00;;;0.00;;
16654;SDS011;8441;51.344;7.022;2023-06-04T12:00:03;0.10;;;0.10;;
16654;SDS011;8441;51.344;7.022;2023-06-04T12:02:34;0.03;;;0.03;;
16654;SDS011;8441;51.344;7.022;2023-06-04T12:05:12;0.00;;;0.00;;
16654;SDS011;8441;51.344;7.022;2023-06-04T12:07:39;0.10;;;0.10;;
16654;SDS011;8441;51.344;7.022;2023-06-04T12:10:06;0.10;;;0.10;;
16654;SDS011;8441;51.344;7.022;2023-06-04T12:12:35;0.10;;;0.10;;
16654;SDS011;8441;51.344;7.022;2023-06-04T12:15:02;0.08;;;0.08;;
16654;SDS011;8441;51.344;7.022;2023-06-04T12:17:30;0.03;;;0.03;;
16654;SDS011;8441;51.344;7.022;2023-06-04T12:19:58;0.00;;;0.00;;
16654;SDS011;8441;51.344;7.022;2023-06-04T12:22:27;0.00;;;0.00;;
16654;SDS011;8441;51.344;7.022;2023-06-04T12:24:55;0.10;;;0.10;;
16654;SDS011;8441;51.344;7.022;2023-06-04T12:27:24;0.05;;;0.05;;
16654;SDS011;8441;51.344;7.022;2023-06-04T12:29:56;0.10;;;0.10;;
16654;SDS011;8441;51.344;7.022;2023-06-04T12:32:23;0.00;;;0.00;;
16654;SDS011;8441;51.344;7.022;2023-06-04T12:34:51;0.03;;;0.03;;
16654;SDS011;8441;51.344;7.022;2023-06-04T12:37:18;0.00;;;0.00;;
16654;SDS011;8441;51.344;7.022;2023-06-04T12:39:47;0.00;;;0.00;;
16654;SDS011;8441;51.344;7.022;2023-06-04T12:42:16;0.00;;;0.00;;
16654;SDS011;8441;51.344;7.022;2023-06-04T12:44:45;0.00;;;0.00;;
16654;SDS011;8441;51.344;7.022;2023-06-04T12:47:12;0.00;;;0.00;;
16654;SDS011;8441;51.344;7.022;2023-06-04T12:49:40;0.00;;;0.00;;
16654;SDS011;8441;51.344;7.022;2023-06-04T12:52:07;0.00;;;0.00;;
16654;SDS011;8441;51.344;7.022;2023-06-04T12:54:34;0.00;;;0.00;;
16654;SDS011;8441;51.344;7.022;2023-06-04T12:57:03;0.00;;;0.00;;
16654;SDS011;8441;51.344;7.022;2023-06-04T12:59:30;0.00;;;0.00;;
16654;SDS011;8441;51.344;7.022;2023-06-04T13:01:57;0.00;;;0.00;;
16654;SDS011;8441;51.344;7.022;2023-06-04T13:04:24;0.00;;;0.00;;
16654;SDS011;8441;51.344;7.022;2023-06-04T13:06:52;0.00;;;0.00;;
16654;SDS011;8441;51.344;7.022;2023-06-04T13:09:24;0.00;;;0.00;;
16654;SDS011;8441;51.344;7.022;2023-06-04T13:11:53;0.10;;;0.10;;
16654;SDS011;8441;51.344;7.022;2023-06-04T13:14:21;0.00;;;0.00;;
16654;SDS011;8441;51.344;7.022;2023-06-04T13:16:49;0.00;;;0.00;;
16654;SDS011;8441;51.344;7.022;2023-06-04T13:19:16;0.10;;;0.10;;
16654;SDS011;8441;51.344;7.022;2023-06-04T13:21:45;0.03;;;0.03;;
16654;SDS011;8441;51.344;7.022;2023-06-04T13:24:12;0.00;;;0.00;;
16654;SDS011;8441;51.344;7.022;2023-06-04T13:26:40;0.08;;;0.08;;
16654;SDS011;8441;51.344;7.022;2023-06-04T13:29:08;0.00;;;0.00;;
16654;SDS011;8441;51.344;7.022;2023-06-04T13:31:36;0.10;;;0.10;;
16654;SDS011;8441;51.344;7.022;2023-06-04T13:34:04;0.10;;;0.10;;
16654;SDS011;8441;51.344;7.022;2023-06-04T13:36:31;0.10;;;0.10;;
16654;SDS011;8441;51.344;7.022;2023-06-04T13:38:58;0.10;;;0.10;;
16654;SDS011;8441;51.344;7.022;2023-06-04T13:41:25;0.10;;;0.10;;
16654;SDS011;8441;51.344;7.022;2023-06-04T13:43:53;0.10;;;0.10;;
16654;SDS011;8441;51.344;7.022;2023-06-04T13:46:20;0.00;;;0.00;;
16654;SDS011;8441;51.344;7.022;2023-06-04T13:48:48;0.08;;;0.08;;
16654;SDS011;8441;51.344;7.022;2023-06-04T13:51:16;0.00;;;0.00;;
16654;SDS011;8441;51.344;7.022;2023-06-04T13:53:43;0.00;;;0.00;;
16654;SDS011;8441;51.344;7.022;2023-06-04T13:56:10;0.00;;;0.00;;
16654;SDS011;8441;51.344;7.022;2023-06-04T13:58:37;0.00;;;0.00;;
16654;SDS011;8441;51.344;7.022;2023-06-04T14:01:04;0.00;;;0.00;;
16654;SDS011;8441;51.344;7.022;2023-06-04T14:03:32;0.10;;;0.10;;
16654;SDS011;8441;51.344;7.022;2023-06-04T14:06:00;0.03;;;0.03;;
16654;SDS011;8441;51.344;7.022;2023-06-04T14:08:27;0.10;;;0.10;;
16654;SDS011;8441;51.344;7.022;2023-06-04T14:10:55;0.10;;;0.10;;
16654;SDS011;8441;51.344;7.022;2023-06-04T14:13:22;0.00;;;0.00;;
16654;SDS011;8441;51.344;7.022;2023-06-04T14:15:50;0.00;;;0.00;;
16654;SDS011;8441;51.344;7.022;2023-06-04T14:18:17;0.00;;;0.00;;
16654;SDS011;8441;51.344;7.022;2023-06-04T14:20:44;0.00;;;0.00;;
16654;SDS011;8441;51.344;7.022;2023-06-04T14:23:12;0.00;;;0.00;;
16654;SDS011;8441;51.344;7.022;2023-06-04T14:25:41;0.00;;;0.00;;
16654;SDS011;8441;51.344;7.022;2023-06-04T14:28:09;0.00;;;0.00;;
16654;SDS011;8441;51.344;7.022;2023-06-04T14:30:36;0.10;;;0.10;;
16654;SDS011;8441;51.344;7.022;2023-06-04T14:33:03;0.10;;;0.10;;
16654;SDS011;8441;51.344;7.022;2023-06-04T14:35:30;0.00;;;0.00;;
16654;SDS011;8441;51.344;7.022;2023-06-04T14:37:57;0.00;;;0.00;;
16654;SDS011;8441;51.344;7.022;2023-06-04T14:40:26;0.00;;;0.00;;
16654;SDS011;8441;51.344;7.022;2023-06-04T14:42:53;0.00;;;0.00;;
16654;SDS011;8441;51.344;7.022;2023-06-04T14:45:20;0.10;;;0.10;;
16654;SDS011;8441;51.344;7.022;2023-06-04T14:47:48;0.00;;;0.00;;
16654;SDS011;8441;51.344;7.022;2023-06-04T14:50:16;0.00;;;0.00;;
16654;SDS011;8441;51.344;7.022;2023-06-04T14:52:44;0.00;;;0.00;;
16654;SDS011;8441;51.344;7.022;2023-06-04T14:55:12;0.00;;;0.00;;
16654;SDS011;8441;51.344;7.022;2023-06-04T14:57:41;0.00;;;0.00;;
16654;SDS011;8441;51.344;7.022;2023-06-04T15:00:08;0.10;;;0.10;;
16654;SDS011;8441;51.344;7.022;2023-06-04T15:02:35;0.00;;;0.00;;
16654;SDS011;8441;51.344;7.022;2023-06-04T15:05:03;0.00;;;0.00;;
16654;SDS011;8441;51.344;7.022;2023-06-04T15:07:30;0.00;;;0.00;;